createdAt,value
2023-07-04T00:01:22.732Z,16.35
2023-07-04T00:03:56.755Z,10.30
2023-07-04T00:06:29.207Z,10.27
2023-07-04T00:08:56.604Z,17.73
2023-07-04T00:11:24.501Z,13.68
2023-07-04T00:13:52.189Z,14.07
2023-07-04T00:16:20.308Z,10.50
2023-07-04T00:18:47.368Z,13.30
2023-07-04T00:21:18.321Z,8.38
2023-07-04T00:23:48.711Z,15.30
2023-07-04T00:26:19.629Z,14.52
2023-07-04T00:28:47.530Z,9.98
2023-07-04T00:31:19.550Z,11.88
2023-07-04T00:33:48.327Z,14.98
2023-07-04T00:36:18.181Z,13.30
2023-07-04T00:38:50.255Z,11.75
2023-07-04T00:41:24.570Z,11.55
2023-07-04T00:44:02.882Z,10.00
2023-07-04T00:46:40.221Z,14.23
2023-07-04T00:49:30.788Z,11.15
2023-07-04T00:52:08.187Z,14.23
2023-07-04T00:54:59.664Z,13.93
2023-07-04T00:57:33.910Z,18.23
2023-07-04T01:00:16.896Z,12.70
2023-07-04T01:02:51.075Z,13.48
2023-07-04T01:05:27.327Z,15.40
2023-07-04T01:08:11.906Z,15.65
2023-07-04T01:10:43.763Z,11.00
2023-07-04T01:13:35.713Z,14.43
2023-07-04T01:16:15.665Z,13.10
2023-07-04T01:18:47.931Z,11.98
2023-07-04T01:21:18.988Z,13.25
2023-07-04T01:24:12.645Z,15.73
2023-07-04T01:26:45.409Z,15.95
2023-07-04T01:29:16.870Z,14.77
2023-07-04T01:31:45.940Z,10.85
2023-07-04T01:34:15.943Z,13.60
2023-07-04T01:36:43.663Z,16.10
2023-07-04T01:39:16.706Z,14.25
2023-07-04T01:41:48.721Z,17.25
2023-07-04T01:44:17.801Z,14.85
2023-07-04T01:46:46.056Z,14.30
2023-07-04T01:49:13.922Z,10.45
2023-07-04T01:51:42.861Z,17.33
2023-07-04T01:54:17.370Z,14.43
2023-07-04T01:56:48.874Z,10.60
2023-07-04T01:59:15.957Z,12.00
2023-07-04T02:01:43.100Z,19.42
2023-07-04T02:04:10.583Z,8.35
2023-07-04T02:06:37.652Z,12.55
2023-07-04T02:09:04.882Z,15.88
2023-07-04T02:11:32.182Z,16.60
2023-07-04T02:14:01.479Z,14.43
2023-07-04T02:16:28.852Z,18.00
2023-07-04T02:18:58.491Z,13.40
2023-07-04T02:21:27.686Z,16.85
2023-07-04T02:23:55.681Z,17.70
2023-07-04T02:26:23.155Z,15.48
2023-07-04T02:28:50.187Z,12.60
2023-07-04T02:31:17.412Z,16.83
2023-07-04T02:33:44.522Z,19.48
2023-07-04T02:36:13.296Z,17.00
2023-07-04T02:38:41.852Z,16.10
2023-07-04T02:41:10.546Z,15.75
2023-07-04T02:43:38.584Z,16.63
2023-07-04T02:46:07.839Z,14.32
2023-07-04T02:48:35.603Z,13.85
2023-07-04T02:51:03.469Z,16.58
2023-07-04T02:53:30.787Z,16.95
2023-07-04T02:55:58.167Z,9.93
2023-07-04T02:58:25.256Z,17.10
2023-07-04T03:00:53.471Z,13.73
2023-07-04T03:03:22.949Z,14.60
2023-07-04T03:05:50.307Z,15.90
2023-07-04T03:08:17.745Z,11.82
2023-07-04T03:10:48.275Z,15.68
2023-07-04T03:13:16.063Z,16.02
2023-07-04T03:15:43.390Z,13.07
2023-07-04T03:18:10.617Z,20.65
2023-07-04T03:20:37.708Z,19.52
2023-07-04T03:23:05.249Z,16.77
2023-07-04T03:25:32.376Z,17.15
2023-07-04T03:27:59.404Z,17.17
2023-07-04T03:30:26.565Z,18.08
2023-07-04T03:32:53.725Z,15.75
2023-07-04T03:35:20.929Z,16.92
2023-07-04T03:37:47.984Z,19.73
2023-07-04T03:40:15.238Z,16.20
2023-07-04T03:42:42.606Z,18.17
2023-07-04T03:45:11.108Z,16.27
2023-07-04T03:47:38.326Z,15.20
2023-07-04T03:50:07.544Z,20.73
2023-07-04T03:52:35.169Z,11.73
2023-07-04T03:55:02.553Z,17.55
2023-07-04T03:57:29.749Z,14.15
2023-07-04T03:59:56.796Z,18.10
2023-07-04T04:02:24.305Z,15.35
2023-07-04T04:04:51.777Z,20.10
2023-07-04T04:07:19.068Z,14.23
2023-07-04T04:09:46.275Z,13.82
2023-07-04T04:12:13.378Z,14.35
2023-07-04T04:14:40.469Z,12.52
2023-07-04T04:17:07.697Z,17.33
2023-07-04T04:19:35.377Z,13.93
2023-07-04T04:22:02.538Z,21.63
2023-07-04T04:24:29.884Z,19.88
2023-07-04T04:27:01.943Z,15.93
2023-07-04T04:29:29.333Z,20.05
2023-07-04T04:31:57.153Z,16.35
2023-07-04T04:34:24.237Z,12.02
2023-07-04T04:36:51.322Z,17.08
2023-07-04T04:39:18.506Z,14.40
2023-07-04T04:41:45.638Z,12.77
2023-07-04T04:44:12.777Z,22.90
2023-07-04T04:46:41.926Z,12.07
2023-07-04T04:49:09.277Z,15.80
2023-07-04T04:51:36.385Z,17.05
2023-07-04T04:54:03.724Z,13.20
2023-07-04T04:56:31.223Z,14.57
2023-07-04T04:58:58.254Z,15.48
2023-07-04T05:01:26.592Z,18.63
2023-07-04T05:03:57.678Z,19.13
2023-07-04T05:06:27.191Z,13.35
2023-07-04T05:08:54.368Z,12.18
2023-07-04T05:11:21.935Z,16.50
2023-07-04T05:13:51.692Z,13.77
2023-07-04T05:16:21.738Z,18.77
2023-07-04T05:18:51.144Z,14.68
2023-07-04T05:21:22.690Z,21.23
2023-07-04T05:23:52.613Z,17.52
2023-07-04T05:26:21.513Z,15.45
2023-07-04T05:28:48.885Z,17.67
2023-07-04T05:31:19.707Z,17.42
2023-07-04T05:33:46.848Z,19.35
2023-07-04T05:36:21.676Z,14.18
2023-07-04T05:38:51.020Z,16.85
2023-07-04T05:41:20.811Z,15.40
2023-07-04T05:43:48.617Z,17.88
2023-07-04T05:46:18.615Z,17.60
2023-07-04T05:48:46.282Z,18.70
2023-07-04T05:51:18.394Z,17.73
2023-07-04T05:53:50.467Z,13.30
2023-07-04T05:56:20.230Z,17.45
2023-07-04T05:58:51.026Z,19.17
2023-07-04T06:01:29.452Z,17.17
2023-07-04T06:03:58.305Z,17.02
2023-07-04T06:06:36.459Z,19.75
2023-07-04T06:09:08.297Z,20.23
2023-07-04T06:11:39.710Z,16.27
2023-07-04T06:14:07.848Z,12.77
2023-07-04T06:16:38.372Z,16.05
2023-07-04T06:19:05.624Z,18.20
2023-07-04T06:21:43.279Z,16.63
2023-07-04T06:24:12.912Z,14.30
2023-07-04T06:26:40.170Z,14.77
2023-07-04T06:29:07.231Z,9.85
2023-07-04T06:31:34.546Z,14.30
2023-07-04T06:34:02.065Z,14.90
2023-07-04T06:36:30.520Z,13.20
2023-07-04T06:39:01.776Z,15.95
2023-07-04T06:41:29.084Z,10.73
2023-07-04T06:43:56.264Z,13.00
2023-07-04T06:46:24.425Z,14.30
2023-07-04T06:48:53.216Z,12.23
2023-07-04T06:51:21.424Z,11.63
2023-07-04T06:53:49.412Z,10.77
2023-07-04T06:56:21.861Z,10.32
2023-07-04T06:58:55.754Z,14.18
2023-07-04T07:01:28.827Z,8.25
2023-07-04T07:03:58.319Z,8.55
2023-07-04T07:06:26.692Z,8.75
2023-07-04T07:08:54.365Z,11.43
2023-07-04T07:11:23.048Z,10.25
2023-07-04T07:13:51.162Z,17.92
2023-07-04T07:16:23.058Z,8.15
2023-07-04T07:18:53.108Z,7.75
2023-07-04T07:21:24.606Z,10.27
2023-07-04T07:23:57.304Z,9.55
2023-07-04T07:26:27.536Z,8.77
2023-07-04T07:28:55.922Z,10.18
2023-07-04T07:31:33.988Z,7.97
2023-07-04T07:34:04.261Z,9.77
2023-07-04T07:36:38.614Z,7.53
2023-07-04T07:39:09.692Z,12.85
2023-07-04T07:41:41.567Z,12.77
2023-07-04T07:44:10.829Z,12.93
2023-07-04T07:46:38.384Z,10.10
2023-07-04T07:49:05.621Z,10.90
2023-07-04T07:51:33.020Z,12.60
2023-07-04T07:54:02.168Z,9.43
2023-07-04T07:56:39.191Z,9.60
2023-07-04T07:59:07.093Z,14.65
2023-07-04T08:01:35.798Z,9.88
2023-07-04T08:04:05.300Z,8.43
2023-07-04T08:06:41.468Z,12.07
2023-07-04T08:09:13.842Z,8.07
2023-07-04T08:11:42.508Z,9.52
2023-07-04T08:14:09.662Z,11.20
2023-07-04T08:16:53.259Z,7.88
2023-07-04T08:19:24.596Z,11.38
2023-07-04T08:21:53.100Z,9.15
2023-07-04T08:24:20.500Z,7.97
2023-07-04T08:26:48.815Z,7.22
2023-07-04T08:29:21.484Z,8.73
2023-07-04T08:31:48.892Z,10.77
2023-07-04T08:34:16.155Z,9.23
2023-07-04T08:36:45.447Z,9.20
2023-07-04T08:39:12.747Z,11.50
2023-07-04T08:41:58.075Z,9.20
2023-07-04T08:44:42.407Z,11.52
2023-07-04T08:47:13.998Z,7.25
2023-07-04T08:50:05.217Z,6.72
2023-07-04T08:52:43.359Z,5.93
2023-07-04T08:55:14.558Z,9.82
2023-07-04T08:57:58.642Z,8.35
2023-07-04T09:00:39.885Z,6.78
2023-07-04T09:03:59.479Z,7.43
2023-07-04T09:06:42.969Z,8.82
2023-07-04T09:09:49.143Z,6.97
2023-07-04T09:12:16.481Z,7.45
2023-07-04T09:14:57.937Z,7.72
2023-07-04T09:17:34.759Z,7.68
2023-07-04T09:20:06.366Z,6.30
2023-07-04T09:22:33.513Z,12.32
2023-07-04T09:25:00.629Z,10.60
2023-07-04T09:27:29.791Z,7.03
2023-07-04T09:29:58.486Z,6.25
2023-07-04T09:32:25.592Z,5.72
2023-07-04T09:35:01.316Z,6.32
2023-07-04T09:37:29.420Z,6.93
2023-07-04T09:40:00.404Z,7.05
2023-07-04T09:42:46.175Z,8.15
2023-07-04T09:45:24.127Z,6.25
2023-07-04T09:47:52.529Z,7.47
2023-07-04T09:50:22.624Z,5.53
2023-07-04T09:53:11.246Z,4.68
2023-07-04T09:55:42.464Z,5.00
2023-07-04T09:58:24.748Z,6.50
2023-07-04T10:01:12.927Z,7.35
2023-07-04T10:03:41.462Z,7.05
2023-07-04T10:06:11.270Z,4.20
2023-07-04T10:08:54.552Z,6.85
2023-07-04T10:11:53.056Z,8.18
2023-07-04T10:14:36.197Z,3.75
2023-07-04T10:17:30.286Z,8.15
2023-07-04T10:20:11.743Z,8.48
2023-07-04T10:22:42.573Z,7.68
2023-07-04T10:25:23.070Z,6.22
2023-07-04T10:28:10.297Z,5.38
2023-07-04T10:30:41.208Z,6.00
2023-07-04T10:33:39.983Z,6.45
2023-07-04T10:36:11.847Z,7.95
2023-07-04T10:38:40.804Z,5.80
2023-07-04T10:41:58.205Z,3.97
2023-07-04T10:44:30.549Z,9.25
2023-07-04T10:47:05.656Z,6.60
2023-07-04T10:49:48.134Z,10.15
2023-07-04T10:52:26.498Z,5.30
2023-07-04T10:54:53.938Z,8.13
2023-07-04T10:57:43.581Z,10.20
2023-07-04T11:00:29.102Z,8.48
2023-07-04T11:03:11.530Z,9.65
2023-07-04T11:05:47.879Z,10.85
2023-07-04T11:08:21.657Z,7.65
2023-07-04T11:11:08.088Z,7.47
2023-07-04T11:13:35.629Z,8.27
2023-07-04T11:16:08.542Z,4.95
2023-07-04T11:18:44.210Z,7.78
2023-07-04T11:21:16.211Z,10.02
2023-07-04T11:23:52.306Z,6.57
2023-07-04T11:26:41.611Z,6.82
2023-07-04T11:29:20.190Z,9.57
2023-07-04T11:32:03.465Z,6.90
2023-07-04T11:34:53.135Z,6.05
2023-07-04T11:37:32.063Z,13.63
2023-07-04T11:40:11.849Z,6.75
2023-07-04T11:42:52.391Z,5.18
2023-07-04T11:45:23.746Z,8.75
2023-07-04T11:48:04.673Z,8.45
2023-07-04T11:50:49.157Z,7.13
2023-07-04T11:53:47.050Z,5.38
2023-07-04T11:56:27.776Z,7.43
2023-07-04T11:59:38.917Z,9.40
2023-07-04T12:02:15.362Z,6.18
2023-07-04T12:04:42.418Z,7.32
2023-07-04T12:07:40.231Z,7.10
2023-07-04T12:10:18.888Z,6.90
2023-07-04T12:12:47.981Z,6.05
2023-07-04T12:15:25.781Z,6.72
2023-07-04T12:17:56.046Z,5.57
2023-07-04T12:20:23.556Z,5.50
2023-07-04T12:22:54.591Z,4.40
2023-07-04T12:25:47.551Z,11.32
2023-07-04T12:28:17.587Z,6.45
2023-07-04T12:30:59.856Z,7.60
2023-07-04T12:33:43.178Z,7.00
2023-07-04T12:36:13.123Z,7.13
2023-07-04T12:38:54.496Z,6.28
2023-07-04T12:41:29.220Z,7.25
2023-07-04T12:51:45.776Z,8.73
2023-07-04T12:54:15.543Z,6.35
2023-07-04T12:56:45.882Z,12.30
2023-07-04T12:59:37.825Z,8.13
2023-07-04T13:02:24.008Z,9.55
2023-07-04T13:04:55.348Z,6.65
2023-07-04T13:07:24.827Z,8.00
2023-07-04T13:09:57.239Z,11.60
2023-07-04T13:12:34.963Z,9.07
2023-07-04T13:15:20.191Z,8.52
2023-07-04T13:18:04.977Z,7.10
2023-07-04T13:20:36.110Z,8.90
2023-07-04T13:25:58.216Z,10.02
2023-07-04T13:34:13.926Z,12.00
2023-07-04T13:36:43.747Z,8.38
2023-07-04T13:41:42.538Z,7.55
2023-07-04T13:46:41.894Z,10.63
2023-07-04T13:49:09.294Z,7.55
2023-07-04T13:51:36.532Z,8.10
2023-07-04T13:54:05.466Z,8.70
2023-07-04T13:56:34.125Z,8.10
2023-07-04T13:59:01.645Z,11.65
2023-07-04T14:06:31.241Z,10.52
2023-07-04T14:08:58.595Z,10.25
2023-07-04T14:11:25.838Z,9.52
2023-07-04T14:13:56.589Z,8.40
2023-07-04T14:21:25.818Z,6.82
2023-07-04T14:23:52.971Z,9.27
2023-07-04T14:26:23.164Z,8.05
2023-07-04T14:28:53.712Z,8.77
2023-07-04T14:31:21.262Z,8.05
2023-07-04T14:33:51.515Z,7.82
2023-07-04T14:36:19.343Z,11.20
2023-07-04T14:38:46.490Z,10.05
2023-07-04T14:43:44.732Z,11.98
2023-07-04T14:46:12.022Z,6.65
2023-07-04T14:48:40.844Z,8.75
2023-07-04T14:51:14.275Z,10.68
2023-07-04T14:53:43.824Z,8.18
2023-07-04T14:56:14.925Z,13.10
2023-07-04T14:58:42.992Z,10.32
2023-07-04T15:01:21.307Z,9.32
2023-07-04T15:03:48.661Z,8.43
2023-07-04T15:06:17.315Z,11.45
2023-07-04T15:08:44.670Z,10.90
2023-07-04T15:11:11.901Z,8.90
2023-07-04T15:13:39.104Z,7.15
2023-07-04T15:16:08.601Z,9.82
2023-07-04T15:18:39.525Z,10.55
2023-07-04T15:21:09.654Z,13.90
2023-07-04T15:23:37.664Z,9.80
2023-07-04T15:26:20.080Z,10.98
2023-07-04T15:28:53.047Z,7.78
2023-07-04T15:31:20.789Z,8.80
2023-07-04T15:33:49.956Z,6.88
2023-07-04T15:36:17.323Z,7.00
2023-07-04T15:38:44.414Z,8.13
2023-07-04T15:41:12.322Z,9.38
2023-07-04T15:43:40.666Z,7.85
2023-07-04T15:46:12.368Z,7.88
2023-07-04T15:48:41.832Z,10.25
2023-07-04T15:51:12.622Z,8.77
2023-07-04T15:53:39.752Z,7.47
2023-07-04T15:56:13.889Z,8.23
2023-07-04T15:58:41.798Z,8.30
2023-07-04T16:01:09.845Z,6.63
2023-07-04T16:03:38.098Z,8.05
2023-07-04T16:06:09.789Z,7.65
2023-07-04T16:08:39.775Z,11.77
2023-07-04T16:11:11.747Z,8.30
2023-07-04T16:13:39.128Z,5.40
2023-07-04T16:16:08.664Z,8.93
2023-07-04T16:18:36.589Z,7.78
2023-07-04T16:21:04.013Z,11.55
2023-07-04T16:23:31.561Z,10.18
2023-07-04T16:25:59.028Z,9.82
2023-07-04T16:28:26.283Z,9.70
2023-07-04T16:31:08.212Z,9.52
2023-07-04T16:33:35.987Z,8.60
2023-07-04T16:36:07.029Z,7.10
2023-07-04T16:38:34.928Z,11.40
2023-07-04T16:41:07.634Z,8.02
2023-07-04T16:43:34.899Z,6.63
2023-07-04T16:46:02.040Z,8.98
2023-07-04T16:48:29.103Z,9.07
2023-07-04T16:50:58.347Z,8.68
2023-07-04T16:53:26.380Z,8.63
2023-07-04T16:55:59.625Z,12.55
2023-07-04T16:58:28.639Z,9.93
2023-07-04T17:00:56.344Z,12.63
2023-07-04T17:03:23.949Z,8.63
2023-07-04T17:05:51.467Z,11.38
2023-07-04T17:08:21.764Z,9.93
2023-07-04T17:10:52.307Z,8.85
2023-07-04T17:13:36.671Z,8.30
2023-07-04T17:16:05.430Z,6.70
2023-07-04T17:18:32.557Z,9.70
2023-07-04T17:20:59.589Z,8.18
2023-07-04T17:23:26.711Z,9.00
2023-07-04T17:25:55.863Z,11.98
2023-07-04T17:28:23.330Z,11.35
2023-07-04T17:30:59.100Z,10.43
2023-07-04T17:33:28.954Z,8.23
2023-07-04T17:36:03.439Z,7.00
2023-07-04T17:38:31.588Z,10.75
2023-07-04T17:41:04.261Z,7.32
2023-07-04T17:43:31.398Z,10.60
2023-07-04T17:46:04.186Z,8.95
2023-07-04T17:48:31.545Z,11.40
2023-07-04T17:51:07.176Z,9.45
2023-07-04T17:53:34.729Z,9.07
2023-07-04T17:56:06.559Z,8.73
2023-07-04T17:58:35.483Z,10.13
2023-07-04T18:01:12.824Z,8.68
2023-07-04T18:03:43.619Z,7.20
2023-07-04T18:06:11.534Z,10.63
2023-07-04T18:08:39.214Z,7.88
2023-07-04T18:11:10.338Z,9.25
2023-07-04T18:13:38.565Z,10.30
2023-07-04T18:16:06.482Z,10.43
2023-07-04T18:18:33.483Z,8.32
2023-07-04T18:21:08.540Z,9.23
2023-07-04T18:23:36.363Z,10.68
2023-07-04T18:26:06.381Z,8.57
2023-07-04T18:28:36.515Z,9.30
2023-07-04T18:31:11.086Z,8.95
2023-07-04T18:33:39.821Z,11.10
2023-07-04T18:36:22.275Z,10.45
2023-07-04T18:38:49.965Z,11.07
2023-07-04T18:41:39.927Z,8.65
2023-07-04T18:44:10.636Z,10.43
2023-07-04T18:46:40.347Z,12.25
2023-07-04T18:49:08.732Z,10.52
2023-07-04T18:51:40.030Z,12.93
2023-07-04T18:54:12.591Z,10.23
2023-07-04T18:56:41.931Z,8.70
2023-07-04T18:59:11.338Z,10.30
2023-07-04T19:01:39.010Z,7.35
2023-07-04T19:04:06.616Z,11.38
2023-07-04T19:06:36.580Z,7.30
2023-07-04T19:09:05.761Z,12.32
2023-07-04T19:11:41.890Z,14.35
2023-07-04T19:14:18.585Z,8.93
2023-07-04T19:16:52.907Z,9.02
2023-07-04T19:19:24.554Z,10.98
2023-07-04T19:21:55.114Z,10.75
2023-07-04T19:24:24.431Z,7.80
2023-07-04T19:26:52.549Z,9.05
2023-07-04T19:29:20.208Z,9.30
2023-07-04T19:31:55.462Z,8.70
2023-07-04T19:34:24.797Z,10.73
2023-07-04T19:36:55.054Z,11.32
2023-07-04T19:39:23.527Z,11.48
2023-07-04T19:41:50.636Z,10.27
2023-07-04T19:44:17.932Z,10.27
2023-07-04T19:46:45.129Z,9.38
2023-07-04T19:49:13.375Z,9.15
2023-07-04T19:51:40.598Z,10.75
2023-07-04T19:54:09.079Z,10.40
2023-07-04T19:56:36.592Z,11.98
2023-07-04T19:59:04.997Z,14.57
2023-07-04T20:01:36.902Z,13.98
2023-07-04T20:04:05.044Z,11.60
2023-07-04T20:06:34.169Z,7.78
2023-07-04T20:09:02.824Z,14.05
2023-07-04T20:11:29.994Z,10.40
2023-07-04T20:13:57.691Z,10.82
2023-07-04T20:16:31.592Z,10.73
2023-07-04T20:18:59.648Z,12.45
2023-07-04T20:21:28.562Z,9.10
2023-07-04T20:23:55.725Z,13.23
2023-07-04T20:26:22.890Z,11.32
2023-07-04T20:28:50.384Z,11.40
2023-07-04T20:31:17.662Z,9.25
2023-07-04T20:33:44.809Z,10.73
2023-07-04T20:36:12.610Z,10.50
2023-07-04T20:38:41.145Z,10.75
2023-07-04T20:41:10.910Z,7.18
2023-07-04T20:43:38.042Z,8.77
2023-07-04T20:46:05.988Z,12.60
2023-07-04T20:48:33.068Z,9.43
2023-07-04T20:51:05.643Z,8.65
2023-07-04T20:53:33.333Z,9.60
2023-07-04T20:56:00.724Z,11.00
2023-07-04T20:58:28.049Z,10.90
2023-07-04T21:00:55.764Z,9.90
2023-07-04T21:03:24.547Z,16.00
2023-07-04T21:05:54.352Z,8.23
2023-07-04T21:08:24.281Z,14.48
2023-07-04T21:11:02.174Z,9.68
2023-07-04T21:13:30.062Z,11.93
2023-07-04T21:16:13.742Z,8.77
2023-07-04T21:18:42.697Z,11.82
2023-07-04T21:21:11.060Z,10.73
2023-07-04T21:23:39.047Z,11.23
2023-07-04T21:26:07.391Z,17.08
2023-07-04T21:28:35.797Z,11.95
2023-07-04T21:31:05.084Z,11.18
2023-07-04T21:33:32.324Z,12.18
2023-07-04T21:36:00.983Z,10.73
2023-07-04T21:38:28.587Z,11.45
2023-07-04T21:41:00.425Z,11.02
2023-07-04T21:43:28.111Z,11.45
2023-07-04T21:46:14.618Z,11.27
2023-07-04T21:48:41.733Z,11.88
2023-07-04T21:51:09.730Z,12.90
2023-07-04T21:53:37.367Z,13.40
2023-07-04T21:56:05.121Z,12.13
2023-07-04T21:58:33.277Z,13.07
2023-07-04T22:01:05.627Z,11.27
2023-07-04T22:03:35.660Z,11.10
2023-07-04T22:06:14.455Z,10.25
2023-07-04T22:08:43.469Z,12.13
2023-07-04T22:11:13.825Z,12.35
2023-07-04T22:13:45.427Z,11.80
2023-07-04T22:16:16.952Z,8.98
2023-07-04T22:18:44.478Z,12.35
2023-07-04T22:21:12.912Z,9.82
2023-07-04T22:23:42.190Z,13.02
2023-07-04T22:26:11.648Z,12.65
2023-07-04T22:28:39.697Z,12.13
2023-07-04T22:31:13.381Z,10.48
2023-07-04T22:33:48.526Z,10.48
2023-07-04T22:36:17.872Z,9.50
2023-07-04T22:38:45.175Z,7.88
2023-07-04T22:41:12.366Z,9.77
2023-07-04T22:43:39.477Z,12.60
2023-07-04T22:46:06.557Z,12.50
2023-07-04T22:48:34.210Z,9.02
2023-07-04T22:51:04.025Z,11.35
2023-07-04T22:53:31.330Z,12.52
2023-07-04T22:56:07.062Z,12.75
2023-07-04T22:58:36.453Z,7.93
2023-07-04T23:01:17.806Z,11.77
2023-07-04T23:03:45.184Z,9.38
2023-07-04T23:06:13.158Z,9.43
2023-07-04T23:08:42.116Z,10.80
2023-07-04T23:11:09.376Z,9.82
2023-07-04T23:13:36.970Z,8.23
2023-07-04T23:16:13.731Z,13.02
2023-07-04T23:18:46.767Z,11.63
2023-07-04T23:21:16.299Z,10.43
2023-07-04T23:23:46.149Z,9.23
2023-07-04T23:26:25.955Z,9.60
2023-07-04T23:28:56.755Z,9.18
2023-07-04T23:31:24.253Z,9.18
2023-07-04T23:33:51.419Z,7.07
2023-07-04T23:36:20.788Z,9.32
2023-07-04T23:38:50.070Z,6.53
2023-07-04T23:41:20.745Z,8.13
2023-07-04T23:43:48.713Z,10.05
2023-07-04T23:46:15.904Z,5.85
2023-07-04T23:48:43.128Z,5.93
2023-07-04T23:51:11.000Z,6.60
2023-07-04T23:53:38.167Z,4.60
2023-07-04T23:56:05.658Z,3.58
2023-07-04T23:58:32.671Z,6.55
